createdAt,value
2018-08-25T00:00:17.439Z,16.69
2018-08-25T00:01:17.387Z,16.69
2018-08-25T00:03:10.688Z,16.68
2018-08-25T00:04:10.680Z,16.72
2018-08-25T00:06:03.998Z,16.71
2018-08-25T00:07:03.961Z,16.64
2018-08-25T00:08:57.259Z,16.71
2018-08-25T00:09:57.209Z,16.66
2018-08-25T00:11:50.504Z,16.74
2018-08-25T00:12:50.474Z,16.74
2018-08-25T00:14:43.784Z,16.74
2018-08-25T00:15:43.740Z,16.65
2018-08-25T00:17:37.062Z,16.64
2018-08-25T00:18:37.019Z,16.65
2018-08-25T00:20:30.360Z,16.54
2018-08-25T00:21:30.295Z,16.47
2018-08-25T00:23:23.599Z,16.47
2018-08-25T00:24:23.566Z,16.50
2018-08-25T00:26:16.893Z,16.57
2018-08-25T00:27:16.868Z,16.58
2018-08-25T00:29:10.144Z,16.46
2018-08-25T00:30:10.117Z,16.50
2018-08-25T00:32:03.443Z,16.43
2018-08-25T00:33:03.386Z,16.41
2018-08-25T00:34:56.706Z,16.47
2018-08-25T00:35:56.656Z,16.54
2018-08-25T00:37:49.965Z,16.41
2018-08-25T00:38:49.931Z,16.47
2018-08-25T00:40:43.252Z,16.65
2018-08-25T00:41:43.211Z,16.60
2018-08-25T00:43:36.516Z,16.54
2018-08-25T00:44:36.475Z,16.53
2018-08-25T00:46:29.795Z,16.49
2018-08-25T00:47:29.751Z,16.39
2018-08-25T00:49:23.056Z,16.49
2018-08-25T00:50:23.028Z,16.43
2018-08-25T00:52:16.340Z,16.46
2018-08-25T00:53:16.298Z,16.43
2018-08-25T00:55:09.608Z,16.39
2018-08-25T00:56:09.566Z,16.41
2018-08-25T00:58:02.882Z,16.42
2018-08-25T00:59:02.832Z,16.43
2018-08-25T01:00:56.144Z,16.41
2018-08-25T01:01:56.116Z,16.38
2018-08-25T01:03:49.425Z,16.33
2018-08-25T01:04:49.377Z,16.35
2018-08-25T01:06:42.683Z,16.35
2018-08-25T01:07:42.648Z,16.35
2018-08-25T01:09:35.981Z,16.33
2018-08-25T01:10:35.938Z,16.28
2018-08-25T01:12:29.247Z,16.35
2018-08-25T01:13:29.196Z,16.46
2018-08-25T01:15:22.508Z,16.43
2018-08-25T01:16:22.473Z,16.41
2018-08-25T01:18:15.800Z,16.43
2018-08-25T01:19:15.752Z,16.33
2018-08-25T01:21:09.073Z,16.41
2018-08-25T01:22:09.039Z,16.39
2018-08-25T01:24:02.355Z,16.43
2018-08-25T01:25:02.302Z,16.43
2018-08-25T01:26:55.612Z,16.54
2018-08-25T01:27:55.580Z,16.56
2018-08-25T01:29:48.892Z,16.68
2018-08-25T01:30:48.847Z,16.60
2018-08-25T01:32:42.174Z,16.69
2018-08-25T01:33:42.126Z,16.72
2018-08-25T01:35:35.428Z,16.72
2018-08-25T01:36:35.396Z,16.66
2018-08-25T01:38:28.707Z,16.71
2018-08-25T01:39:28.662Z,16.69
2018-08-25T01:41:21.992Z,16.68
2018-08-25T01:42:21.950Z,16.86
2018-08-25T01:44:15.264Z,16.79
2018-08-25T01:45:15.227Z,16.68
2018-08-25T01:47:08.517Z,16.69
2018-08-25T01:48:08.483Z,16.69
2018-08-25T01:50:01.819Z,16.74
2018-08-25T01:51:01.763Z,16.74
2018-08-25T01:52:55.073Z,16.66
2018-08-25T01:53:55.033Z,16.68
2018-08-25T01:55:48.348Z,16.71
2018-08-25T01:56:48.303Z,16.81
2018-08-25T01:58:41.635Z,16.76
2018-08-25T01:59:41.583Z,16.72
2018-08-25T02:01:34.893Z,16.69
2018-08-25T02:02:34.899Z,16.68
2018-08-25T02:04:28.183Z,16.74
2018-08-25T02:05:28.124Z,16.66
2018-08-25T02:07:21.432Z,16.72
2018-08-25T02:08:21.403Z,16.71
2018-08-25T02:10:14.724Z,16.75
2018-08-25T02:11:14.672Z,16.69
2018-08-25T02:13:08.010Z,16.69
2018-08-25T02:14:07.960Z,16.72
2018-08-25T02:16:01.273Z,16.54
2018-08-25T02:17:01.227Z,16.42
2018-08-25T02:18:54.549Z,16.43
2018-08-25T02:19:54.495Z,16.51
2018-08-25T02:21:47.815Z,16.42
2018-08-25T02:22:47.768Z,16.39
2018-08-25T02:24:41.086Z,16.31
2018-08-25T02:25:41.035Z,16.31
2018-08-25T02:27:34.339Z,16.26
2018-08-25T02:28:34.304Z,16.24
2018-08-25T02:30:27.630Z,16.29
2018-08-25T02:31:27.579Z,16.21
2018-08-25T02:33:20.880Z,16.29
2018-08-25T02:34:20.850Z,16.28
2018-08-25T02:36:14.188Z,16.10
2018-08-25T02:37:14.133Z,16.15
2018-08-25T02:39:07.439Z,16.23
2018-08-25T02:40:07.409Z,16.13
2018-08-25T02:42:00.735Z,16.15
2018-08-25T02:43:00.685Z,16.12
2018-08-25T02:44:53.981Z,16.02
2018-08-25T02:45:53.950Z,15.90
2018-08-25T02:47:47.261Z,15.86
2018-08-25T02:48:47.218Z,15.76
2018-08-25T02:50:40.530Z,15.73
2018-08-25T02:51:40.476Z,15.64
2018-08-25T02:53:33.802Z,15.65
2018-08-25T02:54:33.755Z,15.61
2018-08-25T02:56:27.080Z,15.67
2018-08-25T02:57:27.020Z,15.54
2018-08-25T02:59:20.333Z,15.43
2018-08-25T03:00:20.290Z,15.35
2018-08-25T03:02:13.606Z,15.33
2018-08-25T03:03:13.556Z,15.36
2018-08-25T03:05:06.857Z,15.24
2018-08-25T03:06:06.824Z,15.22
2018-08-25T03:08:00.143Z,15.25
2018-08-25T03:09:00.095Z,15.22
2018-08-25T03:10:53.393Z,15.19
2018-08-25T03:11:53.351Z,15.25
2018-08-25T03:13:46.732Z,15.18
2018-08-25T03:14:46.636Z,15.15
2018-08-25T03:16:39.935Z,15.15
2018-08-25T03:17:39.908Z,15.21
2018-08-25T03:19:33.217Z,15.19
2018-08-25T03:20:33.163Z,15.09
2018-08-25T03:22:26.482Z,15.09
2018-08-25T03:23:26.452Z,15.07
2018-08-25T03:25:19.745Z,15.10
2018-08-25T03:26:19.697Z,15.14
2018-08-25T03:28:13.011Z,15.03
2018-08-25T03:29:12.977Z,15.07
2018-08-25T03:31:06.279Z,14.97
2018-08-25T03:32:06.282Z,15.03
2018-08-25T03:33:59.547Z,14.94
2018-08-25T03:34:59.507Z,14.84
2018-08-25T03:36:52.810Z,14.94
2018-08-25T03:37:52.776Z,14.94
2018-08-25T03:39:46.096Z,14.88
2018-08-25T03:40:46.048Z,14.86
2018-08-25T03:42:39.361Z,14.62
2018-08-25T03:43:39.312Z,14.58
2018-08-25T03:45:32.636Z,14.53
2018-08-25T03:46:32.579Z,14.55
2018-08-25T03:48:25.912Z,14.53
2018-08-25T03:49:25.852Z,14.50
2018-08-25T03:51:19.143Z,14.45
2018-08-25T03:52:19.113Z,14.33
2018-08-25T03:54:12.433Z,14.45
2018-08-25T03:55:12.390Z,14.35
2018-08-25T03:57:05.698Z,14.43
2018-08-25T03:58:05.653Z,14.29
2018-08-25T03:59:58.972Z,14.37
2018-08-25T04:00:58.923Z,14.37
2018-08-25T04:02:52.259Z,14.37
2018-08-25T04:03:52.204Z,14.30
2018-08-25T04:05:45.520Z,14.04
2018-08-25T04:06:45.463Z,13.90
2018-08-25T04:08:38.777Z,13.79
2018-08-25T04:09:38.748Z,13.74
2018-08-25T04:11:32.178Z,13.83
2018-08-25T04:12:32.093Z,13.75
2018-08-25T04:14:25.537Z,13.63
2018-08-25T04:15:25.485Z,13.60
2018-08-25T04:17:18.312Z,13.53
2018-08-25T04:18:18.262Z,13.35
2018-08-25T04:20:11.564Z,13.01
2018-08-25T04:21:11.528Z,12.91
2018-08-25T04:23:04.845Z,12.93
2018-08-25T04:24:04.783Z,12.79
2018-08-25T04:25:58.115Z,12.73
2018-08-25T04:26:58.059Z,12.62
2018-08-25T04:28:51.360Z,12.64
2018-08-25T04:29:51.318Z,12.45
2018-08-25T04:31:44.625Z,12.29
2018-08-25T04:32:44.585Z,12.39
2018-08-25T04:34:37.889Z,12.32
2018-08-25T04:35:37.853Z,12.32
2018-08-25T04:37:31.168Z,12.28
2018-08-25T04:38:31.128Z,12.31
2018-08-25T04:40:24.429Z,12.20
2018-08-25T04:41:24.534Z,12.20
2018-08-25T04:43:17.695Z,12.22
2018-08-25T04:44:17.653Z,12.20
2018-08-25T04:46:11.959Z,12.29
2018-08-25T04:47:11.929Z,12.20
2018-08-25T04:49:05.245Z,12.27
2018-08-25T04:50:05.199Z,12.28
2018-08-25T04:51:58.514Z,12.35
2018-08-25T04:52:58.461Z,12.37
2018-08-25T04:54:51.779Z,12.40
2018-08-25T04:55:51.716Z,12.37
2018-08-25T04:57:45.042Z,12.46
2018-08-25T04:58:44.983Z,12.46
2018-08-25T05:00:38.286Z,12.61
2018-08-25T05:01:38.245Z,12.64
2018-08-25T05:03:31.578Z,12.68
2018-08-25T05:04:31.525Z,12.65
2018-08-25T05:06:24.946Z,12.61
2018-08-25T05:07:24.796Z,12.67
2018-08-25T05:09:18.117Z,12.64
2018-08-25T05:10:18.076Z,12.64
2018-08-25T05:12:11.377Z,12.75
2018-08-25T05:13:11.348Z,12.83
2018-08-25T05:15:04.672Z,12.87
2018-08-25T05:16:04.607Z,12.86
2018-08-25T05:17:57.911Z,12.83
2018-08-25T05:18:57.881Z,12.83
2018-08-25T05:20:51.191Z,12.91
2018-08-25T05:21:51.197Z,12.87
2018-08-25T05:23:44.432Z,13.01
2018-08-25T05:24:44.410Z,12.97
2018-08-25T05:26:37.750Z,13.03
2018-08-25T05:27:37.695Z,13.05
2018-08-25T05:29:30.996Z,13.03
2018-08-25T05:30:30.961Z,13.01
2018-08-25T05:32:24.282Z,13.09
2018-08-25T05:33:24.220Z,13.04
2018-08-25T05:35:17.523Z,13.05
2018-08-25T05:36:17.495Z,13.12
2018-08-25T05:38:10.815Z,13.12
2018-08-25T05:39:10.762Z,13.04
2018-08-25T05:41:04.058Z,12.97
2018-08-25T05:42:04.030Z,13.08
2018-08-25T05:43:57.350Z,13.09
2018-08-25T05:44:57.297Z,13.08
2018-08-25T05:46:50.617Z,13.05
2018-08-25T05:47:50.558Z,13.12
2018-08-25T05:49:43.864Z,13.09
2018-08-25T05:50:43.884Z,13.11
2018-08-25T05:52:37.141Z,13.09
2018-08-25T05:53:37.098Z,13.11
2018-08-25T05:55:30.401Z,12.98
2018-08-25T05:56:30.364Z,12.94
2018-08-25T05:58:23.700Z,13.03
2018-08-25T05:59:23.636Z,13.03
2018-08-25T06:01:16.933Z,12.87
2018-08-25T06:02:16.907Z,12.91
2018-08-25T06:04:10.209Z,13.00
2018-08-25T06:05:10.157Z,12.98
2018-08-25T06:07:03.496Z,12.97
2018-08-25T06:08:03.429Z,13.00
2018-08-25T06:09:56.727Z,12.98
2018-08-25T06:10:56.693Z,12.94
2018-08-25T06:12:50.002Z,12.90
2018-08-25T06:13:49.949Z,12.87
2018-08-25T06:15:43.252Z,12.87
2018-08-25T06:16:43.217Z,12.90
2018-08-25T06:18:36.537Z,12.90
2018-08-25T06:19:36.483Z,12.91
2018-08-25T06:21:29.788Z,12.95
2018-08-25T06:22:29.750Z,12.93
2018-08-25T06:24:23.065Z,13.01
2018-08-25T06:25:23.026Z,13.00
2018-08-25T06:27:16.383Z,12.97
2018-08-25T06:28:16.335Z,13.00
2018-08-25T06:30:09.687Z,12.97
2018-08-25T06:31:09.624Z,13.00
2018-08-25T06:33:02.950Z,13.05
2018-08-25T06:34:02.898Z,13.08
2018-08-25T06:35:56.263Z,13.15
2018-08-25T06:36:56.172Z,13.25
2018-08-25T06:38:49.493Z,13.28
2018-08-25T06:39:49.436Z,13.27
2018-08-25T06:41:42.748Z,13.35
2018-08-25T06:42:42.720Z,13.33
2018-08-25T06:44:36.031Z,13.37
2018-08-25T06:45:35.966Z,13.35
2018-08-25T06:47:29.276Z,13.44
2018-08-25T06:48:29.234Z,13.41
2018-08-25T06:50:22.548Z,13.22
2018-08-25T06:51:22.504Z,13.35
2018-08-25T06:53:15.828Z,13.33
2018-08-25T06:54:15.770Z,13.35
2018-08-25T06:56:09.094Z,13.37
2018-08-25T06:57:09.048Z,13.28
2018-08-25T06:59:02.345Z,13.30
2018-08-25T07:00:02.301Z,13.27
2018-08-25T07:01:55.628Z,13.46
2018-08-25T07:02:55.581Z,13.53
2018-08-25T07:04:48.871Z,13.59
2018-08-25T07:05:48.868Z,13.56
2018-08-25T07:07:42.164Z,13.60
2018-08-25T07:08:42.109Z,13.52
2018-08-25T07:10:35.422Z,13.65
2018-08-25T07:11:35.376Z,13.65
2018-08-25T07:13:28.687Z,13.65
2018-08-25T07:14:28.660Z,13.72
2018-08-25T07:16:21.961Z,13.74
2018-08-25T07:17:21.921Z,13.71
2018-08-25T07:19:15.221Z,13.78
2018-08-25T07:20:15.185Z,13.79
2018-08-25T07:22:08.506Z,13.79
2018-08-25T07:23:08.449Z,13.81
2018-08-25T07:25:01.755Z,13.81
2018-08-25T07:26:01.773Z,13.87
2018-08-25T07:27:55.030Z,13.97
2018-08-25T07:28:54.986Z,13.93
2018-08-25T07:30:48.295Z,14.07
2018-08-25T07:31:48.252Z,14.12
2018-08-25T07:33:41.551Z,14.26
2018-08-25T07:34:41.531Z,14.25
2018-08-25T07:36:34.846Z,14.20
2018-08-25T07:37:34.791Z,14.14
2018-08-25T07:39:28.106Z,14.11
2018-08-25T07:40:28.051Z,14.22
2018-08-25T07:42:21.375Z,14.32
2018-08-25T07:43:21.321Z,14.36
2018-08-25T07:45:14.677Z,14.48
2018-08-25T07:46:14.591Z,14.53
2018-08-25T07:48:07.897Z,14.54
2018-08-25T07:49:07.857Z,14.54
2018-08-25T07:51:01.198Z,14.63
2018-08-25T07:52:01.121Z,14.51
2018-08-25T07:53:54.441Z,14.45
2018-08-25T07:54:54.392Z,14.55
2018-08-25T07:56:47.687Z,14.59
2018-08-25T07:57:47.669Z,14.70
2018-08-25T07:59:40.976Z,14.65
2018-08-25T08:00:40.923Z,14.70
2018-08-25T08:02:34.239Z,14.53
2018-08-25T08:03:34.187Z,14.60
2018-08-25T08:05:27.521Z,14.59
2018-08-25T08:06:27.456Z,14.59
2018-08-25T08:08:20.772Z,14.53
2018-08-25T08:09:20.727Z,14.60
2018-08-25T08:11:14.032Z,14.69
2018-08-25T08:12:14.079Z,14.70
2018-08-25T08:14:07.317Z,14.72
2018-08-25T08:15:07.267Z,14.72
2018-08-25T08:17:00.579Z,14.62
2018-08-25T08:18:00.522Z,14.65
2018-08-25T08:19:53.838Z,14.66
2018-08-25T08:20:53.793Z,14.73
2018-08-25T08:22:47.103Z,14.78
2018-08-25T08:23:47.083Z,14.82
2018-08-25T08:25:40.392Z,14.97
2018-08-25T08:26:40.348Z,15.04
2018-08-25T08:28:35.599Z,15.02
2018-08-25T08:29:35.462Z,15.04
2018-08-25T08:31:28.778Z,15.11
2018-08-25T08:32:29.009Z,15.14
2018-08-25T08:34:23.773Z,15.19
2018-08-25T08:35:22.905Z,15.09
2018-08-25T08:37:16.202Z,15.24
2018-08-25T08:38:16.171Z,15.24
2018-08-25T08:40:09.494Z,15.42
2018-08-25T08:41:09.432Z,15.35
2018-08-25T08:43:02.758Z,15.43
2018-08-25T08:44:02.727Z,15.35
2018-08-25T08:45:56.047Z,15.40
2018-08-25T08:46:55.983Z,15.44
2018-08-25T08:48:49.295Z,15.61
2018-08-25T08:49:49.264Z,15.51
2018-08-25T08:51:42.607Z,15.68
2018-08-25T08:52:42.529Z,15.59
2018-08-25T08:54:35.838Z,15.58
2018-08-25T08:55:35.805Z,15.68
2018-08-25T08:57:29.124Z,15.95
2018-08-25T08:58:29.066Z,16.00
2018-08-25T09:00:22.373Z,16.16
2018-08-25T09:01:22.348Z,16.28
2018-08-25T09:03:15.715Z,16.24
2018-08-25T09:04:15.625Z,16.16
2018-08-25T09:06:08.932Z,16.28
2018-08-25T09:07:08.895Z,16.23
2018-08-25T09:09:02.225Z,16.33
2018-08-25T09:10:02.164Z,16.28
2018-08-25T09:11:55.601Z,16.15
2018-08-25T09:12:55.439Z,16.26
2018-08-25T09:14:48.744Z,16.33
2018-08-25T09:15:48.714Z,16.32
2018-08-25T09:17:42.036Z,16.41
2018-08-25T09:18:41.983Z,16.58
2018-08-25T09:20:34.813Z,16.49
2018-08-25T09:21:34.769Z,16.46
2018-08-25T09:23:27.595Z,16.33
2018-08-25T09:24:27.539Z,16.47
2018-08-25T09:26:20.365Z,16.56
2018-08-25T09:27:20.331Z,16.51
2018-08-25T09:29:13.150Z,16.53
2018-08-25T09:30:13.099Z,16.75
2018-08-25T09:32:05.964Z,16.66
2018-08-25T09:33:05.881Z,16.74
2018-08-25T09:34:58.691Z,16.74
2018-08-25T09:35:58.806Z,16.78
2018-08-25T09:37:51.483Z,17.01
2018-08-25T09:38:51.436Z,17.08
2018-08-25T09:40:44.268Z,17.20
2018-08-25T09:41:44.278Z,17.34
2018-08-25T09:43:41.297Z,17.15
2018-08-25T09:44:37.022Z,17.24
2018-08-25T09:46:29.845Z,17.44
2018-08-25T09:47:29.807Z,17.33
2018-08-25T09:49:22.635Z,17.23
2018-08-25T09:50:22.582Z,17.41
2018-08-25T09:52:15.393Z,17.70
2018-08-25T09:53:15.363Z,17.63
2018-08-25T09:55:08.202Z,17.39
2018-08-25T09:56:08.138Z,17.36
2018-08-25T09:58:01.037Z,17.46
2018-08-25T09:59:01.154Z,17.52
2018-08-25T10:00:53.838Z,17.82
2018-08-25T10:01:53.781Z,17.86
2018-08-25T10:03:46.606Z,18.53
2018-08-25T10:04:46.576Z,18.95
2018-08-25T10:06:39.404Z,19.48
2018-08-25T10:07:39.361Z,19.58
2018-08-25T10:09:32.193Z,20.00
2018-08-25T10:10:32.161Z,20.22
2018-08-25T10:12:25.086Z,20.10
2018-08-25T10:13:24.943Z,20.36
2018-08-25T10:15:17.766Z,20.96
2018-08-25T10:16:17.722Z,21.14
2018-08-25T10:18:10.568Z,21.15
2018-08-25T10:19:10.519Z,21.07
2018-08-25T10:21:03.356Z,21.85
2018-08-25T10:22:03.318Z,22.23
2018-08-25T10:23:56.128Z,21.72
2018-08-25T10:24:56.110Z,21.72
2018-08-25T10:26:48.949Z,21.72
2018-08-25T10:27:48.899Z,22.14
2018-08-25T10:29:41.748Z,22.07
2018-08-25T10:30:41.708Z,21.70
2018-08-25T10:32:34.527Z,21.37
2018-08-25T10:33:34.502Z,21.73
2018-08-25T10:35:27.349Z,21.46
2018-08-25T10:36:27.298Z,21.35
2018-08-25T10:38:20.109Z,21.85
2018-08-25T10:39:20.087Z,21.91
2018-08-25T10:41:12.924Z,21.95
2018-08-25T10:42:12.994Z,21.92
2018-08-25T10:44:05.730Z,21.24
2018-08-25T10:45:05.694Z,21.54
2018-08-25T10:46:58.525Z,21.80
2018-08-25T10:47:58.533Z,21.91
2018-08-25T10:49:51.303Z,21.67
2018-08-25T10:50:51.289Z,21.72
2018-08-25T10:52:44.119Z,21.98
2018-08-25T10:53:44.094Z,21.33
2018-08-25T10:55:36.909Z,20.67
2018-08-25T10:56:36.875Z,20.88
2018-08-25T10:58:29.718Z,19.67
2018-08-25T10:59:29.679Z,19.47
2018-08-25T11:01:22.550Z,19.21
2018-08-25T11:02:22.454Z,18.74
2018-08-25T11:04:15.274Z,18.60
2018-08-25T11:05:15.244Z,18.28
2018-08-25T11:07:08.076Z,18.71
2018-08-25T11:08:08.033Z,18.80
2018-08-25T11:10:00.841Z,18.98
2018-08-25T11:11:00.813Z,18.83
2018-08-25T11:12:53.640Z,18.80
2018-08-25T11:13:53.598Z,18.62
2018-08-25T11:15:46.410Z,18.63
2018-08-25T11:16:46.378Z,18.75
2018-08-25T11:18:39.213Z,18.59
2018-08-25T11:19:39.165Z,18.52
2018-08-25T11:21:31.981Z,18.81
2018-08-25T11:22:31.944Z,18.37
2018-08-25T11:24:24.786Z,18.22
2018-08-25T11:25:24.741Z,18.43
2018-08-25T11:27:17.560Z,18.66
2018-08-25T11:28:17.515Z,18.63
2018-08-25T11:30:10.360Z,18.65
2018-08-25T11:31:10.316Z,18.34
2018-08-25T11:33:03.150Z,18.26
2018-08-25T11:34:03.090Z,18.04
2018-08-25T11:35:55.910Z,18.01
2018-08-25T11:36:55.888Z,18.18
2018-08-25T11:38:48.725Z,18.22
2018-08-25T11:39:48.675Z,18.28
2018-08-25T11:41:41.501Z,19.04
2018-08-25T11:42:41.465Z,19.41
2018-08-25T11:44:34.290Z,19.66
2018-08-25T11:45:34.239Z,19.64
2018-08-25T11:47:27.059Z,20.02
2018-08-25T11:48:27.040Z,20.29
2018-08-25T11:50:19.882Z,20.32
2018-08-25T11:51:19.825Z,20.63
2018-08-25T11:53:12.639Z,20.81
2018-08-25T11:54:12.627Z,20.82
2018-08-25T11:56:05.449Z,21.22
2018-08-25T11:57:05.417Z,21.43
2018-08-25T11:58:58.234Z,21.51
2018-08-25T11:59:58.202Z,21.79
2018-08-25T12:01:51.034Z,21.91
2018-08-25T12:02:50.988Z,21.60
2018-08-25T12:04:43.826Z,21.51
2018-08-25T12:05:43.781Z,21.50
2018-08-25T12:07:36.597Z,21.64
2018-08-25T12:08:36.566Z,21.45
2018-08-25T12:10:29.412Z,21.73
2018-08-25T12:11:29.367Z,21.60
2018-08-25T12:13:22.189Z,21.98
2018-08-25T12:14:22.166Z,21.83
2018-08-25T12:16:15.035Z,21.46
2018-08-25T12:17:14.977Z,20.92
2018-08-25T12:19:07.777Z,21.03
2018-08-25T12:20:07.749Z,20.74
2018-08-25T12:22:00.587Z,20.29
2018-08-25T12:23:00.574Z,20.14
2018-08-25T12:24:53.387Z,19.76
2018-08-25T12:25:53.322Z,19.56
2018-08-25T12:27:46.150Z,19.56
2018-08-25T12:28:46.108Z,19.55
2018-08-25T12:30:39.068Z,18.99
2018-08-25T12:31:38.893Z,18.66
2018-08-25T12:33:31.745Z,18.11
2018-08-25T12:34:31.673Z,18.11
2018-08-25T12:36:24.512Z,17.97
2018-08-25T12:37:24.461Z,17.72
2018-08-25T12:39:17.310Z,17.52
2018-08-25T12:40:17.233Z,17.49
2018-08-25T12:42:10.073Z,17.57
2018-08-25T12:43:10.070Z,17.51
2018-08-25T12:45:02.857Z,17.15
2018-08-25T12:46:02.793Z,17.06
2018-08-25T12:47:55.629Z,17.02
2018-08-25T12:48:55.681Z,16.90
2018-08-25T12:50:48.397Z,16.64
2018-08-25T12:51:48.409Z,16.79
2018-08-25T12:53:41.174Z,16.99
2018-08-25T12:54:41.134Z,16.94
2018-08-25T12:56:33.945Z,17.04
2018-08-25T12:57:33.921Z,16.97
2018-08-25T12:59:26.748Z,17.01
2018-08-25T13:00:26.690Z,17.09
2018-08-25T13:02:19.515Z,17.24
2018-08-25T13:03:19.472Z,17.39
2018-08-25T13:05:12.289Z,18.03
2018-08-25T13:06:12.247Z,18.44
2018-08-25T13:08:05.077Z,19.11
2018-08-25T13:09:05.034Z,19.24
2018-08-25T13:10:57.844Z,19.49
2018-08-25T13:11:57.818Z,19.77
2018-08-25T13:13:50.944Z,19.92
2018-08-25T13:14:50.716Z,19.91
2018-08-25T13:16:43.444Z,20.03
2018-08-25T13:17:43.415Z,20.06
2018-08-25T13:19:36.244Z,19.77
2018-08-25T13:20:36.202Z,19.76
2018-08-25T13:22:29.015Z,20.06
2018-08-25T13:23:29.037Z,19.88
2018-08-25T13:25:21.805Z,19.86
2018-08-25T13:26:21.776Z,19.86
2018-08-25T13:28:14.603Z,19.91
2018-08-25T13:29:14.575Z,19.86
2018-08-25T13:31:07.481Z,19.89
2018-08-25T13:32:07.361Z,19.77
2018-08-25T13:34:00.175Z,19.62
2018-08-25T13:35:00.133Z,19.79
2018-08-25T13:36:52.944Z,19.26
2018-08-25T13:37:52.911Z,19.33
2018-08-25T13:39:45.739Z,19.34
2018-08-25T13:40:45.699Z,19.27
2018-08-25T13:42:38.520Z,19.16
2018-08-25T13:43:38.537Z,18.95
2018-08-25T13:45:31.327Z,18.96
2018-08-25T13:46:31.257Z,19.00
2018-08-25T13:48:24.101Z,19.09
2018-08-25T13:49:24.049Z,19.00
2018-08-25T13:51:16.854Z,19.15
2018-08-25T13:52:16.823Z,19.08
2018-08-25T13:54:09.646Z,19.12
2018-08-25T13:55:09.604Z,19.04
2018-08-25T13:57:02.425Z,19.26
2018-08-25T13:58:02.385Z,19.19
2018-08-25T13:59:55.220Z,19.16
2018-08-25T14:00:55.172Z,19.18
2018-08-25T14:02:47.991Z,19.21
2018-08-25T14:03:47.951Z,19.19
2018-08-25T14:05:40.801Z,19.16
2018-08-25T14:06:40.734Z,19.22
2018-08-25T14:08:33.548Z,18.95
2018-08-25T14:09:33.512Z,18.95
2018-08-25T14:11:26.342Z,18.98
2018-08-25T14:12:26.286Z,18.92
2018-08-25T14:14:19.132Z,19.24
2018-08-25T14:15:19.080Z,19.41
2018-08-25T14:17:11.902Z,19.73
2018-08-25T14:18:11.862Z,19.88
2018-08-25T14:20:04.691Z,20.13
2018-08-25T14:21:04.637Z,20.07
2018-08-25T14:22:57.459Z,19.94
2018-08-25T14:23:57.431Z,19.92
2018-08-25T14:25:50.267Z,19.82
2018-08-25T14:26:50.217Z,19.74
2018-08-25T14:28:43.086Z,19.16
2018-08-25T14:29:43.002Z,18.77
2018-08-25T14:31:36.009Z,18.11
2018-08-25T14:32:35.961Z,17.48
2018-08-25T14:34:28.967Z,16.72
2018-08-25T14:35:28.933Z,16.28
2018-08-25T14:37:22.356Z,14.97
2018-08-25T14:38:22.302Z,14.63
2018-08-25T14:40:15.122Z,14.18
2018-08-25T14:41:15.077Z,14.25
2018-08-25T14:43:07.910Z,14.26
2018-08-25T14:44:07.857Z,14.22
2018-08-25T14:46:01.203Z,14.03
2018-08-25T14:47:01.141Z,14.11
2018-08-25T14:48:56.197Z,14.36
2018-08-25T14:49:55.993Z,14.53
2018-08-25T14:51:49.872Z,14.99
2018-08-25T14:52:49.836Z,15.25
2018-08-25T14:54:42.917Z,15.37
2018-08-25T14:55:42.903Z,15.42
2018-08-25T14:57:35.717Z,15.44
2018-08-25T14:58:35.682Z,15.43
2018-08-25T15:00:30.033Z,15.37
2018-08-25T15:01:29.935Z,15.43
2018-08-25T15:03:23.280Z,15.59
2018-08-25T15:04:23.264Z,15.67
2018-08-25T15:06:16.513Z,15.70
2018-08-25T15:07:16.500Z,15.72
2018-08-25T15:09:12.417Z,15.55
2018-08-25T15:10:09.778Z,15.62
2018-08-25T15:12:02.602Z,15.72
2018-08-25T15:13:02.549Z,15.68
2018-08-25T15:14:55.867Z,15.67
2018-08-25T15:15:55.816Z,15.51
2018-08-25T15:17:49.144Z,15.52
2018-08-25T15:18:49.177Z,15.59
2018-08-25T15:20:41.919Z,15.47
2018-08-25T15:21:41.879Z,15.44
2018-08-25T15:23:35.218Z,15.25
2018-08-25T15:24:35.169Z,15.24
2018-08-25T15:26:27.985Z,15.19
2018-08-25T15:27:28.054Z,15.21
2018-08-25T15:29:20.773Z,15.14
2018-08-25T15:30:20.710Z,15.07
2018-08-25T15:32:13.537Z,14.99
2018-08-25T15:33:13.493Z,15.00
2018-08-25T15:35:06.316Z,14.84
2018-08-25T15:36:06.275Z,14.91
2018-08-25T15:37:59.593Z,14.68
2018-08-25T15:38:59.541Z,14.70
2018-08-25T15:40:52.370Z,14.72
2018-08-25T15:41:52.320Z,14.70
2018-08-25T15:43:45.615Z,14.65
2018-08-25T15:44:45.575Z,14.70
2018-08-25T15:46:38.420Z,14.78
2018-08-25T15:47:38.352Z,14.70
2018-08-25T15:49:31.174Z,14.81
2018-08-25T15:50:31.120Z,14.72
2018-08-25T15:52:23.968Z,14.91
2018-08-25T15:53:23.915Z,15.00
2018-08-25T15:55:16.819Z,15.46
2018-08-25T15:56:16.689Z,15.84
2018-08-25T15:58:09.491Z,16.32
2018-08-25T15:59:09.463Z,16.51
2018-08-25T16:01:03.261Z,17.01
2018-08-25T16:02:03.231Z,17.20
2018-08-25T16:03:56.030Z,17.42
2018-08-25T16:04:55.969Z,17.71
2018-08-25T16:06:48.911Z,18.08
2018-08-25T16:07:48.976Z,18.29
2018-08-25T16:09:42.135Z,18.81
2018-08-25T16:10:42.109Z,18.75
2018-08-25T16:12:35.514Z,18.55
2018-08-25T16:13:35.361Z,18.55
2018-08-25T16:15:28.675Z,18.13
2018-08-25T16:16:28.627Z,18.07
2018-08-25T16:18:21.951Z,18.03
2018-08-25T16:19:22.015Z,17.92
2018-08-25T16:21:15.256Z,17.70
2018-08-25T16:22:15.191Z,17.63
2018-08-25T16:24:08.503Z,17.31
2018-08-25T16:25:08.467Z,17.34
2018-08-25T16:27:01.835Z,17.15
2018-08-25T16:28:01.743Z,16.99
2018-08-25T16:29:55.071Z,16.66
2018-08-25T16:30:55.018Z,16.74
2018-08-25T16:32:48.361Z,16.78
2018-08-25T16:33:48.300Z,16.66
2018-08-25T16:35:41.135Z,16.60
2018-08-25T16:36:41.093Z,16.54
2018-08-25T16:38:34.396Z,16.53
2018-08-25T16:39:34.361Z,16.46
2018-08-25T16:41:27.687Z,16.68
2018-08-25T16:42:27.637Z,16.78
2018-08-25T16:44:20.957Z,16.96
2018-08-25T16:45:20.909Z,17.09
2018-08-25T16:47:14.323Z,17.11
2018-08-25T16:48:14.297Z,17.15
2018-08-25T16:50:07.600Z,17.14
2018-08-25T16:51:07.596Z,17.14
2018-08-25T16:53:00.857Z,17.09
2018-08-25T16:54:00.821Z,17.02
2018-08-25T16:55:54.145Z,16.91
2018-08-25T16:56:54.080Z,16.68
2018-08-25T16:58:47.413Z,16.81
2018-08-25T16:59:47.372Z,16.83
2018-08-25T17:01:40.728Z,17.05
2018-08-25T17:02:40.652Z,17.12
2018-08-25T17:04:33.959Z,17.24
2018-08-25T17:05:33.907Z,17.22
2018-08-25T17:07:27.262Z,17.24
2018-08-25T17:08:27.196Z,17.24
2018-08-25T17:10:20.507Z,17.05
2018-08-25T17:11:20.474Z,17.04
2018-08-25T17:13:13.800Z,17.04
2018-08-25T17:14:13.747Z,17.02
2018-08-25T17:16:07.102Z,16.86
2018-08-25T17:17:07.028Z,16.78
2018-08-25T17:19:00.350Z,16.74
2018-08-25T17:20:00.309Z,16.74
2018-08-25T17:21:53.612Z,16.90
2018-08-25T17:22:53.582Z,16.87
2018-08-25T17:24:46.898Z,16.94
2018-08-25T17:25:46.850Z,16.87
2018-08-25T17:27:40.183Z,16.79
2018-08-25T17:28:40.112Z,16.87
2018-08-25T17:30:33.459Z,16.89
2018-08-25T17:31:33.420Z,16.90
2018-08-25T17:33:26.730Z,17.01
2018-08-25T17:34:26.710Z,17.02
2018-08-25T17:36:20.047Z,16.90
2018-08-25T17:37:19.985Z,16.87
2018-08-25T17:39:13.309Z,16.90
2018-08-25T17:40:13.265Z,16.89
2018-08-25T17:42:06.577Z,16.91
2018-08-25T17:43:06.536Z,16.79
2018-08-25T17:44:59.939Z,16.78
2018-08-25T17:45:59.803Z,16.74
2018-08-25T17:47:53.152Z,16.66
2018-08-25T17:48:53.086Z,16.60
2018-08-25T17:50:46.414Z,16.57
2018-08-25T17:51:46.365Z,16.43
2018-08-25T17:53:39.685Z,16.49
2018-08-25T17:54:39.660Z,16.47
2018-08-25T17:56:32.971Z,16.24
2018-08-25T17:57:33.054Z,16.32
2018-08-25T17:59:26.234Z,16.26
2018-08-25T18:00:26.246Z,16.20
2018-08-25T18:02:19.515Z,16.16
2018-08-25T18:03:19.464Z,16.09
2018-08-25T18:05:12.773Z,16.15
2018-08-25T18:06:12.735Z,16.24
2018-08-25T18:08:06.065Z,16.16
2018-08-25T18:09:06.005Z,16.17
2018-08-25T18:10:59.337Z,16.09
2018-08-25T18:11:59.286Z,16.13
2018-08-25T18:13:52.579Z,15.98
2018-08-25T18:14:52.548Z,16.02
2018-08-25T18:16:45.874Z,16.00
2018-08-25T18:17:45.854Z,16.00
2018-08-25T18:19:39.161Z,16.00
2018-08-25T18:20:39.096Z,15.92
2018-08-25T18:22:32.530Z,15.90
2018-08-25T18:23:32.464Z,15.90
2018-08-25T18:25:25.700Z,15.79
2018-08-25T18:26:25.677Z,15.75
2018-08-25T18:28:18.991Z,15.73
2018-08-25T18:29:18.906Z,15.67
2018-08-25T18:31:12.215Z,15.67
2018-08-25T18:32:12.181Z,15.61
2018-08-25T18:34:05.527Z,15.42